createdAt,value
2019-04-26T00:03:21.263Z,97228.00
2019-04-26T00:07:23.174Z,97235.00
2019-04-26T00:11:38.338Z,97261.00
2019-04-26T00:15:58.104Z,97276.00
2019-04-26T00:19:59.198Z,97286.00
2019-04-26T00:24:00.175Z,97290.00
2019-04-26T00:28:01.445Z,97285.00
2019-04-26T00:32:02.845Z,97274.00
2019-04-26T00:36:04.122Z,97256.00
2019-04-26T00:40:05.249Z,97267.00
2019-04-26T00:44:06.392Z,97281.00
2019-04-26T00:48:08.993Z,97296.00
2019-04-26T00:52:12.993Z,97303.00
2019-04-26T00:56:15.919Z,97291.00
2019-04-26T01:00:18.532Z,97284.00
2019-04-26T01:04:21.189Z,97284.00
2019-04-26T01:08:23.373Z,97298.00
2019-04-26T01:12:24.472Z,97326.00
2019-04-26T01:16:26.382Z,97326.00
2019-04-26T01:20:31.032Z,97343.00
2019-04-26T01:24:34.304Z,97330.00
2019-04-26T01:28:55.633Z,97311.00
2019-04-26T01:32:56.714Z,97296.00
2019-04-26T01:37:00.803Z,97312.00
2019-04-26T01:41:04.948Z,97318.00
2019-04-26T01:45:27.950Z,97308.00
2019-04-26T01:49:29.028Z,97300.00
2019-04-26T01:53:30.281Z,97302.00
2019-04-26T01:57:31.635Z,97313.00
2019-04-26T02:01:51.297Z,97319.00
2019-04-26T02:05:52.707Z,97306.00
2019-04-26T02:09:53.716Z,97302.00
2019-04-26T02:13:54.817Z,97302.00
2019-04-26T02:17:57.695Z,97309.00
2019-04-26T02:22:03.529Z,97312.00
2019-04-26T02:26:25.549Z,97323.00
2019-04-26T02:30:29.272Z,97341.00
2019-04-26T02:34:33.883Z,97349.00
2019-04-26T02:38:36.626Z,97344.00
2019-04-26T02:42:39.648Z,97362.00
2019-04-26T02:46:55.747Z,97364.00
2019-04-26T02:51:12.748Z,97374.00
2019-04-26T02:55:49.870Z,97344.00
2019-04-26T02:59:54.580Z,97363.00
2019-04-26T03:03:55.732Z,97384.00
2019-04-26T03:08:02.634Z,97371.00
2019-04-26T03:12:10.411Z,97389.00
2019-04-26T03:16:22.790Z,97385.00
2019-04-26T03:20:27.548Z,97369.00
2019-04-26T03:24:44.163Z,97376.00
2019-04-26T03:29:22.308Z,97392.00
2019-04-26T03:33:53.814Z,97391.00
2019-04-26T03:38:06.313Z,97395.00
2019-04-26T03:42:31.149Z,97397.00
2019-04-26T03:46:39.750Z,97396.00
2019-04-26T03:51:17.925Z,97393.00
2019-04-26T03:55:26.173Z,97379.00
2019-04-26T03:59:32.778Z,97357.00
2019-04-26T04:03:57.397Z,97360.00
2019-04-26T04:08:01.687Z,97360.00
2019-04-26T04:12:12.043Z,97380.00
2019-04-26T04:16:22.785Z,97382.00
2019-04-26T04:20:44.928Z,97371.00
2019-04-26T04:24:53.843Z,97365.00
2019-04-26T04:29:18.655Z,97381.00
2019-04-26T04:33:28.752Z,97384.00
2019-04-26T04:37:33.464Z,97391.00
2019-04-26T04:41:46.986Z,97406.00
2019-04-26T04:46:12.012Z,97391.00
2019-04-26T04:50:21.505Z,97403.00
2019-04-26T04:54:41.513Z,97399.00
2019-04-26T04:58:53.115Z,97384.00
2019-04-26T05:03:28.051Z,97404.00
2019-04-26T05:07:51.472Z,97399.00
2019-04-26T05:12:01.931Z,97399.00
2019-04-26T05:16:25.412Z,97410.00
2019-04-26T05:20:30.106Z,97419.00
2019-04-26T05:25:08.956Z,97420.00
2019-04-26T05:29:31.090Z,97421.00
2019-04-26T05:33:36.076Z,97418.00
2019-04-26T05:37:53.134Z,97423.00
2019-04-26T05:42:05.602Z,97431.00
2019-04-26T05:46:27.118Z,97444.00
2019-04-26T05:50:53.718Z,97441.00
2019-04-26T05:55:33.060Z,97440.00
2019-04-26T06:00:20.887Z,97446.00
2019-04-26T06:04:57.142Z,97441.00
2019-04-26T06:09:22.154Z,97450.00
2019-04-26T06:13:59.886Z,97446.00
2019-04-26T06:18:15.406Z,97454.00
2019-04-26T06:22:35.065Z,97467.00
2019-04-26T06:27:13.963Z,97485.00
2019-04-26T06:31:33.065Z,97493.00
2019-04-26T06:35:38.671Z,97502.00
2019-04-26T06:39:43.352Z,97510.00
2019-04-26T06:43:53.959Z,97519.00
2019-04-26T06:48:13.758Z,97514.00
2019-04-26T06:52:18.547Z,97505.00
2019-04-26T06:56:46.258Z,97496.00
2019-04-26T07:01:11.351Z,97488.00
2019-04-26T07:05:18.845Z,97494.00
2019-04-26T07:09:23.544Z,97499.00
2019-04-26T07:13:45.446Z,97491.00
2019-04-26T07:17:56.050Z,97491.00
2019-04-26T07:22:20.157Z,97513.00
2019-04-26T07:26:56.816Z,97529.00
2019-04-26T07:31:04.277Z,97533.00
2019-04-26T07:35:40.744Z,97530.00
2019-04-26T07:40:13.990Z,97544.00
2019-04-26T07:44:44.263Z,97550.00
2019-04-26T07:49:01.685Z,97555.00
2019-04-26T07:53:27.721Z,97543.00
2019-04-26T07:57:48.205Z,97546.00
2019-04-26T08:01:58.004Z,97560.00
2019-04-26T08:06:19.080Z,97565.00
2019-04-26T08:10:18.298Z,97579.00
2019-04-26T08:14:28.143Z,97573.00
2019-04-26T08:18:43.151Z,97583.00
2019-04-26T08:22:47.936Z,97568.00
2019-04-26T08:27:13.680Z,97569.00
2019-04-26T08:31:15.619Z,97578.00
2019-04-26T08:35:26.585Z,97566.00
2019-04-26T08:39:44.577Z,97568.00
2019-04-26T08:43:36.640Z,97571.00
2019-04-26T08:47:56.069Z,97566.00
2019-04-26T08:52:00.336Z,97584.00
2019-04-26T08:56:03.824Z,97607.00
2019-04-26T09:00:10.458Z,97627.00
2019-04-26T09:04:18.408Z,97631.00
2019-04-26T09:08:23.870Z,97636.00
2019-04-26T09:12:28.086Z,97628.00
2019-04-26T09:16:29.330Z,97634.00
2019-04-26T09:20:30.484Z,97635.00
2019-04-26T09:24:50.189Z,97642.00
2019-04-26T09:29:09.525Z,97642.00
2019-04-26T09:33:12.413Z,97654.00
2019-04-26T09:37:13.403Z,97657.00
2019-04-26T09:41:14.378Z,97655.00
2019-04-26T09:45:17.373Z,97672.00
2019-04-26T09:49:26.391Z,97665.00
2019-04-26T09:53:27.273Z,97657.00
2019-04-26T09:57:28.190Z,97658.00
2019-04-26T10:01:31.145Z,97660.00
2019-04-26T10:05:32.364Z,97666.00
2019-04-26T10:09:33.264Z,97675.00
2019-04-26T10:13:36.153Z,97658.00
2019-04-26T10:17:37.024Z,97643.00
2019-04-26T10:21:38.086Z,97646.00
2019-04-26T10:25:39.254Z,97645.00
2019-04-26T10:29:40.242Z,97649.00
2019-04-26T10:33:41.124Z,97668.00
2019-04-26T10:37:43.861Z,97674.00
2019-04-26T10:41:45.325Z,97675.00
2019-04-26T10:45:53.440Z,97675.00
2019-04-26T10:49:49.624Z,97677.00
2019-04-26T10:53:52.515Z,97680.00
2019-04-26T10:57:55.540Z,97686.00
2019-04-26T11:01:56.615Z,97683.00
2019-04-26T11:05:57.602Z,97676.00
2019-04-26T11:09:58.485Z,97664.00
2019-04-26T11:13:59.898Z,97670.00
2019-04-26T11:18:01.054Z,97655.00
2019-04-26T11:22:02.448Z,97671.00
2019-04-26T11:26:03.743Z,97660.00
2019-04-26T11:30:11.461Z,97652.00
2019-04-26T11:34:09.165Z,97660.00
2019-04-26T11:38:10.291Z,97659.00
2019-04-26T11:42:11.811Z,97660.00
2019-04-26T11:46:14.182Z,97664.00
2019-04-26T11:50:16.039Z,97666.00
2019-04-26T11:54:20.754Z,97669.00
2019-04-26T11:58:22.492Z,97668.00
2019-04-26T12:02:23.322Z,97670.00
2019-04-26T12:06:35.344Z,97680.00
2019-04-26T12:10:36.447Z,97685.00
2019-04-26T12:14:37.549Z,97678.00
2019-04-26T12:18:40.194Z,97693.00
2019-04-26T12:22:43.303Z,97692.00
2019-04-26T12:26:46.319Z,97695.00
2019-04-26T12:30:47.302Z,97707.00
2019-04-26T12:34:48.299Z,97696.00
2019-04-26T12:38:50.849Z,97700.00
2019-04-26T12:42:52.629Z,97697.00
2019-04-26T12:46:59.096Z,97699.00
2019-04-26T12:50:59.311Z,97710.00
2019-04-26T12:55:00.395Z,97707.00
2019-04-26T12:59:01.458Z,97718.00
2019-04-26T13:03:04.460Z,97714.00
2019-04-26T13:07:22.782Z,97717.00
2019-04-26T13:11:23.979Z,97714.00
2019-04-26T13:16:03.617Z,97714.00
2019-04-26T13:20:05.779Z,97708.00
2019-04-26T13:24:06.655Z,97715.00
2019-04-26T13:28:07.673Z,97714.00
2019-04-26T13:32:08.536Z,97719.00
2019-04-26T13:36:09.544Z,97711.00
2019-04-26T13:40:10.608Z,97709.00
2019-04-26T13:44:11.803Z,97705.00
2019-04-26T13:48:26.680Z,97700.00
2019-04-26T13:52:27.773Z,97710.00
2019-04-26T13:56:32.136Z,97703.00
2019-04-26T14:00:32.157Z,97712.00
2019-04-26T14:04:33.052Z,97698.00
2019-04-26T14:08:34.036Z,97698.00
2019-04-26T14:12:34.922Z,97710.00
2019-04-26T14:16:35.806Z,97711.00
2019-04-26T14:20:36.791Z,97723.00
2019-04-26T14:24:39.594Z,97715.00
2019-04-26T14:28:42.006Z,97706.00
2019-04-26T14:32:43.161Z,97703.00
2019-04-26T14:36:44.068Z,97710.00
2019-04-26T14:40:45.185Z,97707.00
2019-04-26T14:44:49.453Z,97716.00
2019-04-26T14:49:00.970Z,97719.00
2019-04-26T14:52:51.821Z,97727.00
2019-04-26T14:56:52.852Z,97717.00
2019-04-26T15:00:58.406Z,97724.00
2019-04-26T15:05:12.634Z,97736.00
2019-04-26T15:09:19.496Z,97743.00
2019-04-26T15:13:20.748Z,97739.00
2019-04-26T15:17:22.500Z,97743.00
2019-04-26T15:21:22.877Z,97754.00
2019-04-26T15:25:24.000Z,97751.00
2019-04-26T15:29:26.861Z,97768.00
2019-04-26T15:33:27.627Z,97757.00
2019-04-26T15:37:28.628Z,97761.00
2019-04-26T15:41:51.340Z,97757.00
2019-04-26T15:45:57.114Z,97759.00
2019-04-26T15:50:05.612Z,97757.00
2019-04-26T15:54:02.905Z,97761.00
2019-04-26T15:58:08.182Z,97758.00
2019-04-26T16:02:07.442Z,97753.00
2019-04-26T16:06:08.433Z,97754.00
2019-04-26T16:10:09.637Z,97754.00
2019-04-26T16:14:12.336Z,97753.00
2019-04-26T16:18:16.933Z,97755.00
2019-04-26T16:22:16.232Z,97757.00
2019-04-26T16:26:17.124Z,97759.00
2019-04-26T16:30:32.564Z,97770.00
2019-04-26T16:34:41.727Z,97776.00
2019-04-26T16:38:42.532Z,97762.00
2019-04-26T16:42:43.542Z,97766.00
2019-04-26T16:46:44.615Z,97765.00
2019-04-26T16:50:46.673Z,97777.00
2019-04-26T16:54:47.847Z,97774.00
2019-04-26T16:58:48.734Z,97772.00
2019-04-26T17:02:49.750Z,97768.00
2019-04-26T17:06:50.767Z,97772.00
2019-04-26T17:10:56.332Z,97768.00
2019-04-26T17:14:55.109Z,97775.00
2019-04-26T17:18:59.736Z,97780.00
2019-04-26T17:23:01.231Z,97793.00
2019-04-26T17:27:09.852Z,97800.00
2019-04-26T17:31:09.814Z,97794.00
2019-04-26T17:35:11.046Z,97795.00
2019-04-26T17:39:16.933Z,97800.00
2019-04-26T17:43:14.850Z,97796.00
2019-04-26T17:47:15.754Z,97792.00
2019-04-26T17:51:19.430Z,97796.00
2019-04-26T17:55:19.684Z,97783.00
2019-04-26T17:59:32.804Z,97781.00
2019-04-26T18:03:23.873Z,97788.00
2019-04-26T18:07:40.187Z,97785.00
2019-04-26T18:11:28.050Z,97777.00
2019-04-26T18:15:29.280Z,97789.00
2019-04-26T18:19:48.817Z,97802.00
2019-04-26T18:23:54.703Z,97798.00
2019-04-26T18:27:54.541Z,97809.00
2019-04-26T18:31:59.150Z,97824.00
2019-04-26T18:35:58.483Z,97822.00
2019-04-26T18:40:02.034Z,97833.00
2019-04-26T18:44:03.547Z,97832.00
2019-04-26T18:48:04.888Z,97830.00
2019-04-26T18:52:08.741Z,97840.00
2019-04-26T18:56:10.754Z,97826.00
2019-04-26T19:00:14.396Z,97830.00
2019-04-26T19:04:15.799Z,97836.00
2019-04-26T19:08:20.280Z,97848.00
2019-04-26T19:12:23.273Z,97850.00
2019-04-26T19:16:27.404Z,97855.00
2019-04-26T19:20:47.049Z,97854.00
2019-04-26T19:24:49.352Z,97854.00
2019-04-26T19:28:52.835Z,97849.00
2019-04-26T19:32:53.899Z,97844.00
2019-04-26T19:36:56.366Z,97842.00
2019-04-26T19:40:58.234Z,97839.00
2019-04-26T19:45:11.893Z,97843.00
2019-04-26T19:49:09.975Z,97848.00
2019-04-26T19:53:17.733Z,97854.00
2019-04-26T19:57:23.376Z,97858.00
2019-04-26T20:01:24.997Z,97858.00
2019-04-26T20:05:26.031Z,97858.00
2019-04-26T20:09:27.129Z,97857.00
2019-04-26T20:13:28.075Z,97854.00
2019-04-26T20:17:28.988Z,97851.00
2019-04-26T20:21:32.668Z,97846.00
2019-04-26T20:25:34.788Z,97859.00
2019-04-26T20:29:35.697Z,97858.00
2019-04-26T20:33:36.738Z,97859.00
2019-04-26T20:37:37.799Z,97854.00
2019-04-26T20:41:38.684Z,97849.00
2019-04-26T20:45:41.952Z,97853.00
2019-04-26T20:49:49.607Z,97851.00
2019-04-26T20:53:45.419Z,97858.00
2019-04-26T20:57:46.335Z,97849.00
2019-04-26T21:02:00.426Z,97848.00
2019-04-26T21:05:53.075Z,97851.00
2019-04-26T21:09:54.265Z,97838.00
2019-04-26T21:13:55.184Z,97838.00
2019-04-26T21:17:56.691Z,97831.00
2019-04-26T21:21:59.393Z,97828.00
2019-04-26T21:26:12.403Z,97826.00
2019-04-26T21:30:16.147Z,97829.00
2019-04-26T21:34:19.062Z,97832.00
2019-04-26T21:38:29.604Z,97835.00
2019-04-26T21:42:31.155Z,97838.00
2019-04-26T21:46:33.501Z,97837.00
2019-04-26T21:50:38.645Z,97845.00
2019-04-26T21:54:39.743Z,97849.00
2019-04-26T21:58:40.655Z,97864.00
2019-04-26T22:02:42.904Z,97860.00
2019-04-26T22:06:44.153Z,97865.00
2019-04-26T22:10:46.528Z,97872.00
2019-04-26T22:15:06.891Z,97862.00
2019-04-26T22:19:27.919Z,97862.00
2019-04-26T22:23:34.031Z,97867.00
2019-04-26T22:27:35.219Z,97861.00
2019-04-26T22:31:37.867Z,97867.00
2019-04-26T22:35:38.904Z,97871.00
2019-04-26T22:39:41.231Z,97877.00
2019-04-26T22:43:53.973Z,97873.00
2019-04-26T22:47:59.316Z,97879.00
2019-04-26T22:52:00.707Z,97872.00
2019-04-26T22:56:04.604Z,97871.00
2019-04-26T23:00:05.374Z,97871.00
2019-04-26T23:04:09.654Z,97875.00
2019-04-26T23:08:11.304Z,97869.00
2019-04-26T23:12:29.242Z,97873.00
2019-04-26T23:16:34.872Z,97862.00
2019-04-26T23:20:38.091Z,97864.00
2019-04-26T23:24:38.969Z,97867.00
2019-04-26T23:28:39.851Z,97867.00
2019-04-26T23:32:40.829Z,97864.00
2019-04-26T23:36:43.545Z,97877.00
2019-04-26T23:40:44.502Z,97871.00
2019-04-26T23:44:45.564Z,97866.00
2019-04-26T23:48:49.622Z,97865.00
2019-04-26T23:52:50.403Z,97853.00
2019-04-26T23:56:57.369Z,97851.00
